createdAt,value
2022-10-18T00:02:22.459Z,93073.94
2022-10-18T00:04:48.946Z,93075.28
2022-10-18T00:07:15.468Z,93066.88
2022-10-18T00:09:41.987Z,93071.00
2022-10-18T00:12:08.530Z,93068.78
2022-10-18T00:14:34.992Z,93070.84
2022-10-18T00:17:01.553Z,93080.56
2022-10-18T00:19:29.362Z,93077.78
2022-10-18T00:21:56.304Z,93081.88
2022-10-18T00:24:22.760Z,93078.22
2022-10-18T00:26:49.199Z,93077.47
2022-10-18T00:29:17.946Z,93081.59
2022-10-18T00:31:44.947Z,93080.88
2022-10-18T00:34:13.969Z,93080.13
2022-10-18T00:36:41.459Z,93084.25
2022-10-18T00:39:09.590Z,93076.56
2022-10-18T00:41:38.021Z,93082.75
2022-10-18T00:44:27.517Z,93091.16
2022-10-18T00:47:01.640Z,93104.44
2022-10-18T00:49:33.923Z,93099.41
2022-10-18T00:52:09.810Z,93103.53
2022-10-18T00:54:40.304Z,93092.34
2022-10-18T00:57:07.810Z,93092.94
2022-10-18T00:59:35.180Z,93092.19
2022-10-18T01:02:01.715Z,93095.00
2022-10-18T01:04:28.573Z,93094.84
2022-10-18T01:07:06.997Z,93096.34
2022-10-18T01:10:12.246Z,93096.19
2022-10-18T01:12:57.368Z,93086.28
2022-10-18T01:15:42.153Z,93091.88
2022-10-18T01:18:23.886Z,93084.06
2022-10-18T01:21:10.637Z,93088.94
2022-10-18T01:23:55.084Z,93088.94
2022-10-18T01:26:39.940Z,93084.66
2022-10-18T01:29:24.925Z,93080.41
2022-10-18T01:32:02.465Z,93087.31
2022-10-18T01:34:33.873Z,93085.25
2022-10-18T01:37:03.065Z,93084.53
2022-10-18T01:39:36.798Z,93078.91
2022-10-18T01:42:10.364Z,93086.56
2022-10-18T01:44:39.636Z,93087.16
2022-10-18T01:47:09.398Z,93087.16
2022-10-18T01:49:35.865Z,93085.84
2022-10-18T01:52:02.401Z,93085.69
2022-10-18T01:54:36.530Z,93084.94
2022-10-18T01:57:11.981Z,93073.00
2022-10-18T01:59:56.437Z,93073.75
2022-10-18T02:02:53.777Z,93070.97
2022-10-18T02:05:41.504Z,93067.41
2022-10-18T02:08:24.331Z,93077.16
2022-10-18T02:11:07.880Z,93072.88
2022-10-18T02:13:42.216Z,93074.94
2022-10-18T02:16:14.513Z,93083.34
2022-10-18T02:18:48.256Z,93080.53
2022-10-18T02:21:19.079Z,93078.34
2022-10-18T02:23:47.045Z,93078.34
2022-10-18T02:26:16.830Z,93076.84
2022-10-18T02:28:44.127Z,93093.63
2022-10-18T02:31:10.436Z,93092.16
2022-10-18T02:33:55.961Z,93091.44
2022-10-18T02:36:25.915Z,93092.75
2022-10-18T02:38:56.800Z,93094.81
2022-10-18T02:41:26.426Z,93098.94
2022-10-18T02:43:53.480Z,93098.94
2022-10-18T02:46:20.798Z,93085.53
2022-10-18T02:48:47.191Z,93085.53
2022-10-18T02:51:13.824Z,93088.91
2022-10-18T02:53:40.306Z,93083.31
2022-10-18T02:56:07.004Z,93090.25
2022-10-18T02:58:33.475Z,93087.44
2022-10-18T03:00:59.949Z,93091.56
2022-10-18T03:03:26.409Z,93088.75
2022-10-18T03:05:53.030Z,93083.16
2022-10-18T03:08:19.559Z,93088.75
2022-10-18T03:10:47.197Z,93084.50
2022-10-18T03:13:14.050Z,93080.19
2022-10-18T03:15:40.573Z,93080.94
2022-10-18T03:18:07.004Z,93080.19
2022-10-18T03:20:34.272Z,93088.59
2022-10-18T03:23:00.729Z,93081.53
2022-10-18T03:25:27.226Z,93081.53
2022-10-18T03:27:53.680Z,93079.34
2022-10-18T03:30:20.136Z,93078.59
2022-10-18T03:32:46.594Z,93075.78
2022-10-18T03:35:13.036Z,93078.59
2022-10-18T03:37:39.526Z,93077.13
2022-10-18T03:40:06.817Z,93086.81
2022-10-18T03:42:33.431Z,93079.75
2022-10-18T03:45:00.089Z,93079.75
2022-10-18T03:47:26.565Z,93085.34
2022-10-18T03:49:56.237Z,93087.97
2022-10-18T03:52:23.938Z,93095.03
2022-10-18T03:54:50.397Z,93097.69
2022-10-18T03:57:16.857Z,93103.28
2022-10-18T03:59:43.533Z,93104.59
2022-10-18T04:02:10.246Z,93102.56
2022-10-18T04:04:36.675Z,93113.00
2022-10-18T04:07:03.143Z,93107.41
2022-10-18T04:09:29.604Z,93113.00
2022-10-18T04:11:56.062Z,93117.13
2022-10-18T04:14:22.642Z,93113.00
2022-10-18T04:16:49.196Z,93106.66
2022-10-18T04:19:15.875Z,93106.66
2022-10-18T04:21:42.331Z,93100.34
2022-10-18T04:24:08.838Z,93093.25
2022-10-18T04:26:35.413Z,93098.84
2022-10-18T04:29:02.035Z,93093.25
2022-10-18T04:31:28.549Z,93089.75
2022-10-18T04:33:55.048Z,93094.59
2022-10-18T04:36:21.517Z,93096.63
2022-10-18T04:38:47.982Z,93097.38
2022-10-18T04:41:14.433Z,93094.59
2022-10-18T04:43:40.946Z,93098.69
2022-10-18T04:46:07.430Z,93088.84
2022-10-18T04:48:33.974Z,93092.38
2022-10-18T04:51:00.484Z,93095.19
2022-10-18T04:53:27.107Z,93095.19
2022-10-18T04:55:53.649Z,93088.84
2022-10-18T04:58:20.137Z,93100.03
2022-10-18T05:00:47.787Z,93094.44
2022-10-18T05:03:15.012Z,93097.81
2022-10-18T05:06:00.629Z,93098.56
2022-10-18T05:08:28.409Z,93094.28
2022-10-18T05:10:54.907Z,93099.88
2022-10-18T05:13:21.486Z,93101.91
2022-10-18T05:15:47.950Z,93095.59
2022-10-18T05:18:14.498Z,93096.91
2022-10-18T05:20:40.978Z,93100.47
2022-10-18T05:23:10.723Z,93099.72
2022-10-18T05:25:41.639Z,93104.56
2022-10-18T05:28:21.108Z,93109.44
2022-10-18T05:30:55.174Z,93110.91
2022-10-18T05:33:21.624Z,93112.22
2022-10-18T05:35:48.073Z,93115.03
2022-10-18T05:38:14.518Z,93110.03
2022-10-18T05:40:40.955Z,93119.88
2022-10-18T05:43:07.387Z,93119.13
2022-10-18T05:45:33.851Z,93119.13
2022-10-18T05:48:00.540Z,93130.31
2022-10-18T05:50:26.980Z,93137.25
2022-10-18T05:53:02.752Z,93134.44
2022-10-18T05:55:39.331Z,93137.84
2022-10-18T05:58:05.862Z,93144.16
2022-10-18T06:00:32.397Z,93141.94
2022-10-18T06:03:00.343Z,93146.94
2022-10-18T06:05:27.406Z,93137.84
2022-10-18T06:07:54.004Z,93137.09
2022-10-18T06:10:20.466Z,93139.72
2022-10-18T06:12:46.917Z,93146.81
2022-10-18T06:15:13.438Z,93148.13
2022-10-18T06:17:39.889Z,93150.91
2022-10-18T06:20:07.513Z,93151.66
2022-10-18T06:22:34.076Z,93156.50
2022-10-18T06:25:00.552Z,93161.34
2022-10-18T06:27:27.049Z,93147.97
2022-10-18T06:29:53.508Z,93149.44
2022-10-18T06:32:20.158Z,93152.84
2022-10-18T06:34:46.593Z,93157.09
2022-10-18T06:37:13.116Z,93140.91
2022-10-18T06:39:39.580Z,93149.28
2022-10-18T06:42:06.039Z,93145.00
2022-10-18T06:44:32.510Z,93150.03
2022-10-18T06:46:58.985Z,93150.59
2022-10-18T06:49:25.454Z,93151.94
2022-10-18T06:51:54.180Z,93156.19
2022-10-18T06:54:20.828Z,93160.31
2022-10-18T06:56:47.312Z,93149.13
2022-10-18T06:59:14.102Z,93159.56
2022-10-18T07:01:40.823Z,93153.25
2022-10-18T07:04:07.398Z,93157.53
2022-10-18T07:06:33.989Z,93146.91
2022-10-18T07:09:02.902Z,93159.56
2022-10-18T07:11:29.536Z,93153.25
2022-10-18T07:14:03.004Z,93159.56
2022-10-18T07:16:29.520Z,93146.19
2022-10-18T07:18:56.031Z,93146.19
2022-10-18T07:21:24.258Z,93146.19
2022-10-18T07:23:51.611Z,93146.19
2022-10-18T07:26:17.987Z,93146.19
2022-10-18T07:28:49.440Z,93139.13
2022-10-18T07:31:16.299Z,93141.91
2022-10-18T07:33:45.385Z,93144.72
2022-10-18T07:36:12.814Z,93144.72
2022-10-18T07:38:39.733Z,93144.72
2022-10-18T07:41:07.533Z,93143.22
2022-10-18T07:43:34.871Z,93137.63
2022-10-18T07:46:02.269Z,93126.44
2022-10-18T07:48:28.971Z,93132.03
2022-10-18T07:50:58.720Z,93131.31
2022-10-18T07:53:25.484Z,93130.56
2022-10-18T07:55:51.936Z,93130.56
2022-10-18T07:58:18.442Z,93132.03
2022-10-18T08:00:44.896Z,93132.03
2022-10-18T08:03:11.352Z,93126.44
2022-10-18T08:05:37.902Z,93129.06
2022-10-18T08:08:07.879Z,93125.72
2022-10-18T08:10:35.543Z,93124.97
2022-10-18T08:13:01.993Z,93112.31
2022-10-18T08:15:28.457Z,93119.38
2022-10-18T08:17:54.925Z,93109.50
2022-10-18T08:20:30.442Z,93115.09
2022-10-18T08:23:00.371Z,93112.31
2022-10-18T08:25:27.687Z,93101.13
2022-10-18T08:27:54.217Z,93106.72
2022-10-18T08:30:20.805Z,93106.72
2022-10-18T08:32:47.277Z,93106.72
2022-10-18T08:35:13.852Z,93108.19
2022-10-18T08:37:40.453Z,93109.50
2022-10-18T08:40:07.617Z,93106.72
2022-10-18T08:42:58.877Z,93103.91
2022-10-18T08:45:41.957Z,93099.06
2022-10-18T08:48:22.267Z,93095.53
2022-10-18T08:50:50.935Z,93094.06
2022-10-18T08:53:36.159Z,93095.53
2022-10-18T08:56:16.308Z,93089.94
2022-10-18T08:58:46.632Z,93083.63
2022-10-18T09:01:45.984Z,93082.88
2022-10-18T09:04:18.213Z,93072.44
2022-10-18T09:06:52.544Z,93061.81
2022-10-18T09:09:42.545Z,93054.16
2022-10-18T09:12:30.993Z,93046.53
2022-10-18T09:15:07.325Z,93042.22
2022-10-18T09:18:11.194Z,93040.94
2022-10-18T09:20:46.689Z,93031.06
2022-10-18T09:23:28.494Z,93026.94
2022-10-18T09:26:20.494Z,93024.16
2022-10-18T09:28:59.144Z,93022.66
2022-10-18T09:31:45.033Z,93014.88
2022-10-18T09:34:39.500Z,93014.28
2022-10-18T09:37:13.391Z,93015.59
2022-10-18T09:39:40.196Z,92998.81
2022-10-18T09:42:29.324Z,93004.56
2022-10-18T09:45:00.880Z,92998.97
2022-10-18T09:47:47.465Z,92987.06
2022-10-18T09:50:34.407Z,92997.50
2022-10-18T09:53:13.197Z,92989.84
2022-10-18T09:55:59.424Z,92987.81
2022-10-18T09:58:33.828Z,92987.22
2022-10-18T10:01:00.527Z,92982.22
2022-10-18T10:03:27.005Z,92972.47
2022-10-18T10:06:11.719Z,92973.97
2022-10-18T10:08:42.364Z,92971.91
2022-10-18T10:11:28.468Z,92969.84
2022-10-18T10:14:08.937Z,92964.25
2022-10-18T10:16:43.894Z,92965.75
2022-10-18T10:19:27.479Z,92959.41
2022-10-18T10:22:01.979Z,92959.41
2022-10-18T10:24:37.245Z,92948.22
2022-10-18T10:27:07.363Z,92957.34
2022-10-18T10:29:47.372Z,92948.97
2022-10-18T10:32:19.105Z,92948.22
2022-10-18T10:34:46.073Z,92948.22
2022-10-18T10:37:36.330Z,92943.38
2022-10-18T10:40:27.652Z,92936.28
2022-10-18T10:43:32.898Z,92937.78
2022-10-18T10:46:04.264Z,92932.19
2022-10-18T10:48:34.091Z,92923.78
2022-10-18T10:51:07.514Z,92925.09
2022-10-18T10:53:33.835Z,92919.50
2022-10-18T10:56:01.048Z,92914.66
2022-10-18T10:58:33.526Z,92911.13
2022-10-18T11:01:18.834Z,92905.53
2022-10-18T11:03:48.250Z,92903.47
2022-10-18T11:07:07.106Z,92891.53
2022-10-18T11:09:53.057Z,92897.13
2022-10-18T11:12:33.866Z,92880.34
2022-10-18T11:15:36.506Z,92874.75
2022-10-18T11:18:23.909Z,92873.47
2022-10-18T11:21:03.128Z,92864.31
2022-10-18T11:23:32.770Z,92857.97
2022-10-18T11:26:11.264Z,92852.41
2022-10-18T11:28:52.637Z,92837.69
2022-10-18T11:31:50.661Z,92842.69
2022-10-18T11:34:38.161Z,92825.78
2022-10-18T11:37:28.566Z,92818.84
2022-10-18T11:40:02.315Z,92812.53
2022-10-18T11:43:05.370Z,92810.44
2022-10-18T11:45:49.859Z,92806.94
2022-10-18T11:48:16.252Z,92800.59
2022-10-18T11:50:59.904Z,92797.97
2022-10-18T11:53:51.727Z,92779.69
2022-10-18T11:56:37.254Z,92790.88
2022-10-18T11:59:36.955Z,92783.09
2022-10-18T12:02:18.502Z,92772.63
2022-10-18T12:05:05.342Z,92767.06
2022-10-18T12:07:45.209Z,92763.50
2022-10-18T12:10:26.312Z,92767.06
2022-10-18T12:13:08.028Z,92769.09
2022-10-18T12:15:39.265Z,92755.88
2022-10-18T12:18:11.556Z,92755.88
2022-10-18T12:20:48.687Z,92750.28
2022-10-18T12:23:30.242Z,92746.13
2022-10-18T12:26:03.353Z,92746.13
2022-10-18T12:28:32.550Z,92739.09
2022-10-18T12:31:04.924Z,92737.03
2022-10-18T12:33:38.493Z,92732.75
2022-10-18T12:36:20.914Z,92732.91
2022-10-18T12:38:58.051Z,92728.63
2022-10-18T12:41:30.922Z,92723.75
2022-10-18T12:44:03.268Z,92719.66
2022-10-18T12:46:50.856Z,92712.56
2022-10-18T12:49:41.455Z,92714.06
2022-10-18T12:52:33.588Z,92718.91
2022-10-18T12:55:18.318Z,92717.56
2022-10-18T12:57:53.856Z,92707.72
2022-10-18T13:00:29.531Z,92713.31
2022-10-18T13:03:16.513Z,92702.88
2022-10-18T13:05:56.416Z,92702.88
2022-10-18T13:08:29.256Z,92702.88
2022-10-18T13:11:01.685Z,92698.00
2022-10-18T13:13:44.318Z,92700.09
2022-10-18T13:16:21.984Z,92698.75
2022-10-18T13:18:57.007Z,92687.56
2022-10-18T13:21:43.394Z,92694.50
2022-10-18T13:24:28.217Z,92691.69
2022-10-18T13:27:24.306Z,92691.69
2022-10-18T13:30:27.765Z,92686.09
2022-10-18T13:33:31.815Z,92676.38
2022-10-18T13:36:21.786Z,92680.50
2022-10-18T13:39:04.351Z,92683.31
2022-10-18T13:41:56.536Z,92677.72
2022-10-18T13:44:28.632Z,92684.75
2022-10-18T13:46:55.027Z,92683.31
2022-10-18T13:49:39.777Z,92679.16
2022-10-18T13:52:34.396Z,92687.56
2022-10-18T13:55:03.842Z,92683.44
2022-10-18T13:58:00.641Z,92679.16
2022-10-18T14:00:49.028Z,92677.13
2022-10-18T14:04:02.218Z,92670.78
2022-10-18T14:06:35.313Z,92682.72
2022-10-18T14:09:40.191Z,92682.72
2022-10-18T14:12:26.616Z,92681.97
2022-10-18T14:15:05.555Z,92677.84
2022-10-18T14:17:46.518Z,92670.78
2022-10-18T14:20:29.416Z,92676.38
2022-10-18T14:23:16.042Z,92677.84
2022-10-18T14:25:43.172Z,92681.97
2022-10-18T14:28:18.517Z,92681.97
2022-10-18T14:31:09.282Z,92683.44
2022-10-18T14:33:40.774Z,92691.84
2022-10-18T14:36:15.852Z,92689.03
2022-10-18T14:38:51.293Z,92683.44
2022-10-18T14:41:22.382Z,92681.38
2022-10-18T14:43:50.094Z,92681.97
2022-10-18T14:46:28.977Z,92669.47
2022-10-18T14:49:04.201Z,92677.84
2022-10-18T14:51:35.438Z,92677.84
2022-10-18T14:54:02.813Z,92683.44
2022-10-18T14:56:31.522Z,92684.91
2022-10-18T14:59:02.187Z,92681.97
2022-10-18T15:01:31.234Z,92682.72
2022-10-18T15:04:05.267Z,92679.91
2022-10-18T15:06:32.816Z,92680.66
2022-10-18T15:09:01.986Z,92686.97
2022-10-18T15:11:28.783Z,92689.03
2022-10-18T15:13:59.085Z,92684.16
2022-10-18T15:16:28.610Z,92681.97
2022-10-18T15:19:28.742Z,92677.84
2022-10-18T15:22:19.814Z,92684.75
2022-10-18T15:24:44.992Z,92676.38
2022-10-18T15:27:20.965Z,92681.97
2022-10-18T15:29:47.745Z,92674.91
2022-10-18T15:32:28.209Z,92677.72
2022-10-18T15:35:06.092Z,92674.91
2022-10-18T15:37:41.324Z,92679.78
2022-10-18T15:40:22.990Z,92680.50
2022-10-18T15:42:51.090Z,92690.22
2022-10-18T15:45:23.484Z,92695.81
2022-10-18T15:48:18.228Z,92705.69
2022-10-18T15:51:06.069Z,92699.94
2022-10-18T15:53:35.198Z,92704.94
2022-10-18T15:56:21.993Z,92707.00
2022-10-18T15:58:49.037Z,92707.00
2022-10-18T16:01:21.291Z,92707.00
2022-10-18T16:03:49.613Z,92701.41
2022-10-18T16:06:18.383Z,92695.09
2022-10-18T16:08:50.895Z,92697.13
2022-10-18T16:11:21.376Z,92705.53
2022-10-18T16:13:48.672Z,92706.28
2022-10-18T16:16:18.570Z,92702.72
2022-10-18T16:18:45.284Z,92715.38
2022-10-18T16:21:22.026Z,92715.38
2022-10-18T16:23:49.252Z,92721.56
2022-10-18T16:26:17.107Z,92716.72
2022-10-18T16:28:44.329Z,92728.63
2022-10-18T16:31:19.608Z,92733.50
2022-10-18T16:33:46.897Z,92733.50
2022-10-18T16:36:19.667Z,92739.09
2022-10-18T16:38:47.456Z,92737.59
2022-10-18T16:41:15.789Z,92736.13
2022-10-18T16:43:47.090Z,92733.34
2022-10-18T16:46:20.201Z,92734.09
2022-10-18T16:48:48.563Z,92743.19
2022-10-18T16:51:15.376Z,92748.78
2022-10-18T16:53:41.868Z,92745.28
2022-10-18T16:56:20.732Z,92758.50
2022-10-18T16:58:47.841Z,92755.13
2022-10-18T17:01:17.525Z,92764.84
2022-10-18T17:03:44.525Z,92765.56
2022-10-18T17:06:24.093Z,92769.69
2022-10-18T17:08:51.941Z,92769.69
2022-10-18T17:11:19.324Z,92773.81
2022-10-18T17:13:45.947Z,92779.41
2022-10-18T17:18:57.469Z,92796.16
2022-10-18T17:21:25.316Z,92790.47
2022-10-18T17:23:51.881Z,92787.66
2022-10-18T17:26:28.966Z,92789.88
2022-10-18T17:29:00.119Z,92787.66
2022-10-18T17:31:28.050Z,92775.00
2022-10-18T17:33:55.364Z,92782.78
2022-10-18T17:36:21.831Z,92787.66
2022-10-18T17:38:52.190Z,92784.88
2022-10-18T17:41:19.011Z,92787.66
2022-10-18T17:43:45.518Z,92784.88
2022-10-18T17:46:13.229Z,92797.66
2022-10-18T17:48:40.445Z,92797.66
2022-10-18T17:51:09.016Z,92799.13
2022-10-18T17:53:35.605Z,92808.84
2022-10-18T17:56:03.408Z,92810.16
2022-10-18T17:58:30.425Z,92810.75
2022-10-18T18:00:56.921Z,92815.63
2022-10-18T18:03:23.486Z,92820.47
2022-10-18T18:05:49.997Z,92821.22
2022-10-18T18:08:16.477Z,92819.72
2022-10-18T18:10:42.951Z,92830.16
2022-10-18T18:13:09.496Z,92823.84
2022-10-18T18:15:35.996Z,92828.72
2022-10-18T18:18:02.518Z,92828.13
2022-10-18T18:20:28.994Z,92820.31
2022-10-18T18:22:55.467Z,92823.13
2022-10-18T18:25:21.952Z,92823.13
2022-10-18T18:27:48.386Z,92817.53
2022-10-18T18:30:17.674Z,92821.66
2022-10-18T18:32:44.205Z,92809.88
2022-10-18T18:35:10.700Z,92813.97
2022-10-18T18:37:37.218Z,92816.78
2022-10-18T18:40:04.229Z,92818.13
2022-10-18T18:42:31.939Z,92820.91
2022-10-18T18:44:58.641Z,92829.31
2022-10-18T18:47:25.191Z,92825.03
2022-10-18T18:49:51.682Z,92832.09
2022-10-18T18:52:18.202Z,92832.09
2022-10-18T18:54:46.389Z,92842.53
2022-10-18T18:57:12.867Z,92832.09
2022-10-18T18:59:39.452Z,92836.19
2022-10-18T19:02:05.932Z,92830.59
2022-10-18T19:04:32.882Z,92836.19
2022-10-18T19:06:59.346Z,92836.94
2022-10-18T19:09:27.361Z,92833.41
2022-10-18T19:11:56.018Z,92830.59
2022-10-18T19:14:24.792Z,92834.75
2022-10-18T19:16:54.456Z,92836.78
2022-10-18T19:19:23.342Z,92838.13
2022-10-18T19:21:55.142Z,92838.88
2022-10-18T19:24:23.725Z,92838.88
2022-10-18T19:27:02.696Z,92849.31
2022-10-18T19:29:30.388Z,92849.31
2022-10-18T19:31:59.894Z,92848.56
2022-10-18T19:34:28.041Z,92847.81
2022-10-18T19:36:55.269Z,92852.69
2022-10-18T19:39:24.355Z,92852.69
2022-10-18T19:41:55.119Z,92852.69
2022-10-18T19:44:23.464Z,92851.97
2022-10-18T19:46:50.480Z,92850.50
2022-10-18T19:49:17.702Z,92850.50
2022-10-18T19:51:44.616Z,92851.22
2022-10-18T19:54:12.463Z,92861.69
2022-10-18T19:56:39.033Z,92858.13
2022-10-18T19:59:05.535Z,92867.28
2022-10-18T20:01:32.211Z,92868.00
2022-10-18T20:03:59.037Z,92862.13
2022-10-18T20:06:25.873Z,92877.72
2022-10-18T20:08:52.795Z,92876.22
2022-10-18T20:11:23.005Z,92870.63
2022-10-18T20:13:49.972Z,92869.16
2022-10-18T20:16:18.044Z,92871.97
2022-10-18T20:18:44.592Z,92874.75
2022-10-18T20:21:13.037Z,92880.34
2022-10-18T20:23:40.936Z,92880.34
2022-10-18T20:26:11.040Z,92878.88
2022-10-18T20:28:38.444Z,92881.69
2022-10-18T20:31:06.371Z,92885.94
2022-10-18T20:33:34.145Z,92878.88
2022-10-18T20:36:05.288Z,92878.16
2022-10-18T20:38:33.747Z,92876.09
2022-10-18T20:41:27.905Z,92883.00
2022-10-18T20:44:16.633Z,92874.59
2022-10-18T20:46:44.089Z,92881.53
2022-10-18T20:49:14.533Z,92881.53
2022-10-18T20:51:41.763Z,92882.25
2022-10-18T20:54:09.657Z,92870.34
2022-10-18T20:56:38.642Z,92874.47
2022-10-18T20:59:06.345Z,92873.88
2022-10-18T21:01:34.478Z,92874.00
2022-10-18T21:04:04.148Z,92872.13
2022-10-18T21:06:33.713Z,92868.00
2022-10-18T21:09:02.990Z,92876.53
2022-10-18T21:11:31.736Z,92876.69
2022-10-18T21:14:02.620Z,92872.69
2022-10-18T21:16:31.099Z,92871.53
2022-10-18T21:19:05.804Z,92875.94
2022-10-18T21:21:32.695Z,92880.34
2022-10-18T21:24:02.457Z,92880.50
2022-10-18T21:26:31.971Z,92878.00
2022-10-18T21:28:59.754Z,92878.16
2022-10-18T21:31:28.449Z,92879.78
2022-10-18T21:33:57.713Z,92878.59
2022-10-18T21:36:24.494Z,92874.63
2022-10-18T21:38:51.304Z,92877.69
2022-10-18T21:41:19.895Z,92878.59
2022-10-18T21:43:49.413Z,92876.69
2022-10-18T21:46:17.417Z,92878.47
2022-10-18T21:48:45.928Z,92873.03
2022-10-18T21:51:14.009Z,92872.00
2022-10-18T21:53:44.047Z,92874.34
2022-10-18T21:56:13.085Z,92873.91
2022-10-18T21:58:40.439Z,92872.69
2022-10-18T22:01:14.896Z,92875.06
2022-10-18T22:03:41.992Z,92877.41
2022-10-18T22:06:13.529Z,92871.81
2022-10-18T22:09:01.031Z,92871.81
2022-10-18T22:11:33.147Z,92866.94
2022-10-18T22:14:00.726Z,92866.22
2022-10-18T22:16:28.013Z,92869.00
2022-10-18T22:18:58.405Z,92871.81
2022-10-18T22:21:25.076Z,92864.00
2022-10-18T22:23:53.727Z,92857.66
2022-10-18T22:26:24.611Z,92854.72
2022-10-18T22:29:00.761Z,92849.00
2022-10-18T22:31:30.360Z,92854.59
2022-10-18T22:33:59.937Z,92851.66
2022-10-18T22:36:27.304Z,92848.84
2022-10-18T22:38:53.645Z,92853.72
2022-10-18T22:41:20.503Z,92854.59
2022-10-18T22:43:49.853Z,92849.56
2022-10-18T22:46:16.878Z,92850.31
2022-10-18T22:48:44.460Z,92857.41
2022-10-18T22:51:11.639Z,92859.44
2022-10-18T22:53:39.748Z,92861.66
2022-10-18T22:56:07.722Z,92860.91
2022-10-18T22:58:34.545Z,92847.66
2022-10-18T23:01:07.089Z,92854.72
2022-10-18T23:03:33.793Z,92864.44
2022-10-18T23:06:00.456Z,92854.59
2022-10-18T23:08:27.603Z,92855.91
2022-10-18T23:10:56.179Z,92848.84
2022-10-18T23:13:24.095Z,92846.66
2022-10-18T23:15:50.942Z,92845.91
2022-10-18T23:18:18.260Z,92847.81
2022-10-18T23:20:45.180Z,92847.09
2022-10-18T23:23:12.887Z,92846.34
2022-10-18T23:25:39.875Z,92848.41
2022-10-18T23:28:06.370Z,92848.25
2022-10-18T23:30:32.897Z,92848.25
2022-10-18T23:32:59.332Z,92847.56
2022-10-18T23:35:25.824Z,92856.50
2022-10-18T23:37:52.709Z,92844.59
2022-10-18T23:40:19.212Z,92838.25
2022-10-18T23:42:45.751Z,92842.38
2022-10-18T23:45:12.253Z,92838.13
2022-10-18T23:47:38.737Z,92839.47
2022-10-18T23:50:05.824Z,92840.16
2022-10-18T23:52:32.272Z,92842.81
2022-10-18T23:54:58.721Z,92841.38
2022-10-18T23:57:25.284Z,92840.63
2022-10-18T23:59:51.730Z,92844.75
